Time;durP1;ratioP1;P1;durP2;ratioP2;P2;SDS_P1;SDS_P2;PMS_P1;PMS_P2;Temp;Humidity;BMP_temperature;BMP_pressure;BME280_temperature;BME280_humidity;BME280_pressure;Samples;Min_cycle;Max_cycle;Signal;HPM_P1;HPM_P2
2024/03/11 00:01:40;;;;;;;12.00;7.90;;;;;;;10.08;71.60;98150.88;232135;197;138848;-58
2024/03/11 00:06:44;;;;;;;;;;;;;;;9.99;71.64;98150.51;232303;201;151854;-60
2024/03/11 00:11:56;;;;;;;8.80;6.90;;;;;;;9.96;71.83;98149.86;232283;204;135426;-60
2024/03/11 00:17:03;;;;;;;8.80;6.40;;;;;;;9.93;71.89;98158.41;232240;205;137667;-60
2024/03/11 00:22:06;;;;;;;11.60;7.30;;;;;;;9.95;72.04;98149.36;232243;204;151407;-58
2024/03/11 00:27:10;;;;;;;11.70;7.40;;;;;;;10.03;71.71;98152.23;231851;198;140260;-60
2024/03/11 00:32:14;;;;;;;13.10;7.80;;;;;;;10.11;71.64;98147.52;232378;204;138328;-61
2024/03/11 00:37:18;;;;;;;11.20;7.70;;;;;;;10.08;71.40;98150.41;232242;197;151373;-60
2024/03/11 00:42:22;;;;;;;12.00;6.80;;;;;;;10.03;71.36;98146.02;232247;204;137014;-59
2024/03/11 00:47:25;;;;;;;11.30;7.30;;;;;;;9.96;71.56;98145.45;232112;197;137975;-59
2024/03/11 00:52:29;;;;;;;10.50;6.70;;;;;;;9.94;71.67;98131.38;232191;198;151450;-59
2024/03/11 00:57:35;;;;;;;11.30;8.00;;;;;;;9.98;71.54;98128.84;232196;197;138011;-60
2024/03/11 01:02:39;;;;;;;10.50;7.40;;;;;;;10.02;71.40;98122.14;232529;201;137113;-59
2024/03/11 01:07:45;;;;;;;11.20;7.50;;;;;;;10.00;71.41;98120.14;232523;203;150887;-61
2024/03/11 01:12:49;;;;;;;10.70;7.50;;;;;;;10.01;71.35;98118.27;232473;201;136607;-61
2024/03/11 01:17:55;;;;;;;11.10;7.80;;;;;;;10.04;71.20;98106.41;232584;200;136770;-61
2024/03/11 01:22:59;;;;;;;11.10;7.80;;;;;;;9.99;71.17;98103.95;232601;205;151134;-60
2024/03/11 01:28:04;;;;;;;9.40;6.60;;;;;;;9.94;71.22;98096.27;232576;196;136530;-60
2024/03/11 01:33:07;;;;;;;11.60;7.80;;;;;;;9.95;71.23;98092.73;232626;200;138082;-61
2024/03/11 01:38:10;;;;;;;10.80;7.80;;;;;;;9.99;71.08;98096.46;232576;196;151223;-61
2024/03/11 01:43:17;;;;;;;11.80;7.70;;;;;;;10.02;71.13;98088.98;232547;203;137715;-61
2024/03/11 01:48:20;;;;;;;13.20;8.10;;;;;;;10.04;70.97;98081.78;232590;200;137283;-61
2024/03/11 01:53:24;;;;;;;12.90;7.50;;;;;;;10.04;70.98;98074.65;232427;201;151318;-61
2024/03/11 01:58:32;;;;;;;8.70;6.50;;;;;;;10.01;70.97;98075.40;232581;200;138328;-60
2024/03/11 02:03:36;;;;;;;10.20;6.80;;;;;;;9.91;71.13;98072.13;232624;200;136877;-61
2024/03/11 02:08:42;;;;;;;8.60;6.20;;;;;;;9.92;71.32;98076.29;232634;200;151672;-61
2024/03/11 02:13:45;;;;;;;8.90;7.10;;;;;;;9.98;71.39;98070.52;232486;197;137577;-60
2024/03/11 02:18:51;;;;;;;9.00;6.50;;;;;;;10.00;71.33;98066.98;232557;203;137056;-61
2024/03/11 02:23:55;;;;;;;9.30;7.00;;;;;;;10.10;71.27;98059.36;232439;197;151335;-62
2024/03/11 02:28:58;;;;;;;9.20;6.80;;;;;;;10.12;71.02;98063.40;232529;204;138106;-62
2024/03/11 02:34:05;;;;;;;9.80;6.70;;;;;;;10.08;71.11;98062.98;232275;200;139212;-60
2024/03/11 02:39:08;;;;;;;11.20;6.00;;;;;;;10.04;71.24;98064.72;232419;201;152776;-61
2024/03/11 02:44:13;;;;;;;8.00;6.60;;;;;;;9.98;71.44;98057.58;232505;198;136710;-62
2024/03/11 02:49:16;;;;;;;8.00;6.30;;;;;;;9.92;71.71;98061.02;232459;204;137146;-61
2024/03/11 02:54:20;;;;;;;10.30;6.60;;;;;;;9.94;71.97;98062.78;232521;204;152658;-61
2024/03/11 02:59:24;;;;;;;9.10;6.20;;;;;;;9.98;72.03;98056.00;232499;200;140166;-61
2024/03/11 03:04:30;;;;;;;9.70;7.10;;;;;;;9.96;72.15;98056.45;232555;204;137350;-62
2024/03/11 03:09:36;;;;;;;9.00;6.20;;;;;;;9.94;72.22;98048.45;232599;204;151219;-62
2024/03/11 03:14:40;;;;;;;;;;;;;;;9.91;72.28;98039.29;232486;204;136627;-60
2024/03/11 03:19:43;;;;;;;10.10;6.70;;;;;;;9.92;72.36;98033.52;232659;200;135358;-60
2024/03/11 03:24:46;;;;;;;9.70;6.30;;;;;;;10.01;72.39;98040.17;232575;204;151309;-60
2024/03/11 03:29:50;;;;;;;9.80;6.20;;;;;;;10.05;72.28;98044.77;232503;197;137334;-60
2024/03/11 03:34:53;;;;;;;8.80;6.70;;;;;;;10.07;72.16;98045.19;232630;197;137891;-61
2024/03/11 03:39:56;;;;;;;10.40;6.70;;;;;;;10.08;72.31;98046.22;232565;200;151149;-61
2024/03/11 03:44:59;;;;;;;9.30;6.70;;;;;;;10.07;72.31;98045.41;232475;197;136645;-61
2024/03/11 03:50:04;;;;;;;10.10;6.60;;;;;;;10.06;72.40;98051.10;232632;204;137414;-61
2024/03/11 03:55:11;;;;;;;8.40;6.00;;;;;;;10.11;72.53;98049.09;232397;197;151557;-61
2024/03/11 04:00:17;;;;;;;10.40;6.40;;;;;;;10.20;72.43;98047.91;232474;204;137823;-61
2024/03/11 04:05:22;;;;;;;8.60;6.10;;;;;;;10.29;72.27;98044.63;232541;200;136623;-61
2024/03/11 04:10:26;;;;;;;7.30;5.80;;;;;;;10.28;72.35;98035.14;232410;197;151702;-61
2024/03/11 04:15:30;;;;;;;8.50;6.90;;;;;;;10.30;72.40;98032.84;232538;200;144938;-61
2024/03/11 04:20:34;;;;;;;8.10;6.10;;;;;;;10.32;72.38;98027.56;232584;204;136918;-59
2024/03/11 04:25:37;;;;;;;8.20;5.60;;;;;;;10.29;72.52;98034.30;232556;204;151334;-61
2024/03/11 04:30:40;;;;;;;7.30;5.60;;;;;;;10.33;72.50;98034.38;232352;198;137570;-60
2024/03/11 04:35:44;;;;;;;8.20;6.30;;;;;;;10.38;72.55;98023.14;232554;201;137993;-60
2024/03/11 04:40:47;;;;;;;7.10;5.30;;;;;;;10.42;72.44;98008.64;232358;204;152751;-60
2024/03/11 04:45:51;;;;;;;7.70;5.90;;;;;;;10.49;72.35;98002.14;232371;200;136924;-61
2024/03/11 04:50:55;;;;;;;8.80;6.40;;;;;;;10.48;72.29;98000.27;232536;200;136978;-60
2024/03/11 04:55:58;;;;;;;7.80;6.40;;;;;;;10.50;72.36;98009.83;231883;197;151660;-60
2024/03/11 05:01:01;;;;;;;10.20;6.80;;;;;;;10.51;72.31;98017.88;232411;197;138827;-59
2024/03/11 05:06:04;;;;;;;9.10;6.00;;;;;;;10.49;72.49;98043.75;232478;200;136713;-60
2024/03/11 05:11:08;;;;;;;9.40;6.20;;;;;;;10.50;72.61;98052.20;232628;197;152182;-60
2024/03/11 05:16:11;;;;;;;8.60;5.80;;;;;;;10.56;72.71;98053.34;232478;200;137186;-60
2024/03/11 05:21:14;;;;;;;7.50;5.80;;;;;;;10.62;72.73;98043.45;232433;203;139681;-59
2024/03/11 05:26:18;;;;;;;7.40;5.70;;;;;;;10.61;72.76;98039.61;232554;204;152064;-61
2024/03/11 05:31:22;;;;;;;8.80;6.30;;;;;;;10.64;72.94;98036.59;232609;197;136500;-61
2024/03/11 05:36:25;;;;;;;8.40;6.30;;;;;;;10.62;72.92;98030.30;232098;204;136794;-60
2024/03/11 05:41:28;;;;;;;8.30;6.50;;;;;;;10.59;73.13;98026.32;232574;200;152538;-61
2024/03/11 05:46:31;;;;;;;9.20;5.60;;;;;;;10.58;73.38;98020.73;232353;197;139532;-61
2024/03/11 05:51:37;;;;;;;7.30;5.30;;;;;;;10.61;73.74;98016.07;232500;204;137567;-62
2024/03/11 05:56:42;;;;;;;191.10;152.90;;;;;;;10.96;75.15;98013.77;232425;200;152913;-61
2024/03/11 06:01:46;;;;;;;10.40;7.20;;;;;;;11.08;73.68;98014.77;232529;200;138490;-61
2024/03/11 06:06:53;;;;;;;99.40;77.10;;;;;;;11.13;73.12;98037.65;232466;197;137658;-61
2024/03/11 06:11:58;;;;;;;11.50;8.20;;;;;;;11.11;72.86;98052.84;232452;204;151718;-63
2024/03/11 06:17:05;;;;;;;13.00;6.60;;;;;;;11.20;73.10;98062.98;232510;200;137033;-61
2024/03/11 06:22:11;;;;;;;12.20;6.20;;;;;;;11.18;72.65;98082.19;232530;204;141129;-61
2024/03/11 06:27:15;;;;;;;8.00;6.10;;;;;;;11.12;72.58;98102.50;232439;204;151443;-60
2024/03/11 06:32:18;;;;;;;8.60;6.00;;;;;;;11.14;72.75;98109.67;232548;204;137906;-60
2024/03/11 06:37:21;;;;;;;11.10;7.00;;;;;;;11.19;72.85;98105.73;232572;200;137094;-61
2024/03/11 06:42:24;;;;;;;9.30;6.20;;;;;;;11.26;72.86;98112.09;232390;197;151414;-62
2024/03/11 06:47:28;;;;;;;9.70;6.70;;;;;;;11.30;72.80;98119.00;232571;200;137277;-62
2024/03/11 06:52:33;;;;;;;269.60;200.50;;;;;;;11.35;73.13;98123.26;232346;197;136711;-60
2024/03/11 06:57:38;;;;;;;12.30;8.60;;;;;;;11.41;73.62;98124.56;232462;197;151284;-63
2024/03/11 07:02:41;;;;;;;12.40;7.10;;;;;;;11.40;72.99;98123.89;232329;198;137929;-61
2024/03/11 07:07:45;;;;;;;9.90;6.90;;;;;;;11.36;73.08;98120.79;232412;201;136668;-61
2024/03/11 07:12:49;;;;;;;9.30;6.20;;;;;;;11.38;73.10;98122.83;232409;201;151686;-62
2024/03/11 07:17:52;;;;;;;8.40;6.10;;;;;;;11.45;73.15;98124.42;232400;198;137303;-61
2024/03/11 07:22:55;;;;;;;11.10;6.60;;;;;;;11.54;73.06;98129.65;232521;204;136610;-60
2024/03/11 07:27:58;;;;;;;9.70;6.60;;;;;;;11.58;72.91;98133.45;232604;200;152030;-61
2024/03/11 07:33:07;;;;;;;9.90;6.90;;;;;;;11.58;73.05;98133.24;232386;201;137927;-62
2024/03/11 07:38:11;;;;;;;10.50;6.50;;;;;;;11.56;73.12;98134.29;232330;197;138499;-63
2024/03/11 07:43:15;;;;;;;8.70;6.60;;;;;;;11.57;73.30;98132.10;232432;200;152026;-61
2024/03/11 07:48:18;;;;;;;23.80;18.30;;;;;;;11.55;73.70;98139.90;232539;201;136489;-60
2024/03/11 07:53:22;;;;;;;13.30;8.80;;;;;;;11.66;74.28;98148.46;232416;200;138838;-60
2024/03/11 07:58:25;;;;;;;9.30;6.40;;;;;;;11.78;73.86;98152.42;232371;204;152462;-62
2024/03/11 08:03:28;;;;;;;9.80;5.60;;;;;;;11.86;73.60;98156.48;232293;197;136854;-62
2024/03/11 08:08:32;;;;;;;10.00;6.20;;;;;;;11.90;73.71;98158.98;232351;204;137167;-66
2024/03/11 08:13:35;;;;;;;12.90;6.90;;;;;;;11.95;73.66;98157.33;232490;200;151162;-65
2024/03/11 08:18:44;;;;;;;11.30;6.90;;;;;;;11.97;73.69;98161.95;232365;204;137382;-65
2024/03/11 08:23:48;;;;;;;10.00;7.00;;;;;;;11.99;73.62;98171.05;232450;201;140015;-66
2024/03/11 08:28:51;;;;;;;10.70;6.80;;;;;;;12.02;73.72;98170.98;232486;204;152015;-66
2024/03/11 08:33:55;;;;;;;12.10;7.00;;;;;;;12.04;73.84;98173.78;232084;202;137442;-66
2024/03/11 08:38:58;;;;;;;9.70;7.00;;;;;;;12.15;73.99;98174.52;232439;200;137544;-66
2024/03/11 08:44:02;;;;;;;11.20;7.30;;;;;;;12.24;73.60;98180.55;232258;203;152322;-65
2024/03/11 08:49:07;;;;;;;12.30;7.20;;;;;;;12.29;73.55;98177.48;232400;200;137689;-65
2024/03/11 08:54:12;;;;;;;10.80;7.60;;;;;;;12.30;73.63;98180.55;232280;202;137893;-65
2024/03/11 08:59:15;;;;;;;12.70;8.10;;;;;;;12.35;73.56;98187.11;232422;200;151133;-65
2024/03/11 09:04:19;;;;;;;12.10;7.80;;;;;;;12.37;73.48;98188.21;232350;201;136999;-62
2024/03/11 09:09:26;;;;;;;9.90;7.40;;;;;;;12.38;73.50;98187.05;232615;203;137048;-62
2024/03/11 09:14:33;;;;;;;10.60;7.90;;;;;;;12.46;73.54;98186.38;232489;201;151366;-60
2024/03/11 09:19:36;;;;;;;13.20;8.10;;;;;;;12.52;73.38;98190.29;232480;203;137105;-61
2024/03/11 09:24:41;;;;;;;57.10;44.50;;;;;;;12.62;73.39;98198.20;232671;200;137064;-62
2024/03/11 09:29:48;;;;;;;15.70;9.90;;;;;;;12.73;73.29;98199.60;232477;196;151379;-58
2024/03/11 09:34:51;;;;;;;13.40;8.60;;;;;;;12.72;72.84;98197.88;232568;203;141501;-58
2024/03/11 09:39:54;;;;;;;11.60;8.30;;;;;;;12.64;72.53;98201.39;232595;203;136767;-57
2024/03/11 09:44:59;;;;;;;15.30;9.00;;;;;;;12.60;72.84;98196.27;232569;200;151515;-58
2024/03/11 09:50:03;;;;;;;13.30;8.80;;;;;;;12.56;73.16;98191.20;232491;200;138102;-57
2024/03/11 09:55:07;;;;;;;128.30;90.90;;;;;;;12.54;73.55;98193.31;232419;203;137373;-57
2024/03/11 10:00:15;;;;;;;14.90;9.80;;;;;;;12.63;73.66;98195.85;232340;200;151579;-59
2024/03/11 10:05:22;;;;;;;11.20;8.30;;;;;;;12.66;73.47;98189.69;232394;204;137518;-58
2024/03/11 10:10:29;;;;;;;12.80;8.80;;;;;;;12.67;73.50;98187.60;232449;200;138330;-58
2024/03/11 10:15:33;;;;;;;121.70;87.30;;;;;;;12.70;73.80;98190.74;232474;200;151549;-58
2024/03/11 10:20:37;;;;;;;15.50;11.50;;;;;;;12.77;74.16;98191.41;232361;203;137624;-59
2024/03/11 10:25:40;;;;;;;571.20;443.40;;;;;;;12.78;73.92;98189.89;232468;203;138141;-59
2024/03/11 10:30:44;;;;;;;19.30;14.10;;;;;;;12.89;74.39;98190.95;232556;204;152068;-58
2024/03/11 10:35:49;;;;;;;13.90;9.00;;;;;;;13.00;74.21;98185.56;231990;203;138195;-61
2024/03/11 10:40:53;;;;;;;179.90;141.40;;;;;;;13.09;73.92;98185.64;232326;200;137525;-57
2024/03/11 10:45:58;;;;;;;16.20;10.90;;;;;;;13.18;73.97;98184.02;232349;200;152822;-57
2024/03/11 10:51:03;;;;;;;15.40;9.10;;;;;;;13.19;73.56;98183.34;232500;203;136928;-59
2024/03/11 10:56:19;;;;;;;12.70;9.00;;;;;;;13.16;73.75;98187.00;232428;204;139632;-59
2024/03/11 11:01:33;;;;;;;12.50;8.40;;;;;;;13.20;74.06;98186.13;232334;203;151615;-56
2024/03/11 11:06:36;;;;;;;16.30;12.10;;;;;;;13.28;73.93;98185.66;232322;203;138524;-57
2024/03/11 11:11:51;;;;;;;12.80;9.10;;;;;;;13.37;73.76;98186.16;232050;200;139096;-58
2024/03/11 11:16:55;;;;;;;13.90;9.40;;;;;;;13.47;73.52;98179.50;232437;200;151112;-57
2024/03/11 11:22:02;;;;;;;13.90;10.20;;;;;;;13.58;73.51;98179.86;232394;203;137020;-58
2024/03/11 11:27:11;;;;;;;14.20;9.70;;;;;;;13.64;73.43;98174.33;232461;203;137666;-56
2024/03/11 11:37:07;;;;;;;71.60;55.70;;;;;;;13.86;74.11;98169.98;229568;212;709030;-55
2024/03/11 11:42:37;;;;;;;15.90;11.60;;;;;;;13.92;73.72;98174.29;231287;208;137635;-57
2024/03/11 11:47:43;;;;;;;15.90;11.10;;;;;;;13.94;73.07;98178.33;231300;209;136832;-58
2024/03/11 11:53:03;;;;;;;16.00;11.00;;;;;;;13.92;72.91;98176.18;231093;208;149371;-59
2024/03/11 11:58:07;;;;;;;14.60;11.50;;;;;;;13.88;72.61;98172.84;231001;208;149835;-58
2024/03/11 12:03:30;;;;;;;88.90;63.20;;;;;;;13.83;73.76;98170.59;231357;204;136331;-58
2024/03/11 12:08:35;;;;;;;20.40;12.70;;;;;;;13.86;73.01;98172.70;230818;202;147363;-58
2024/03/11 12:13:41;;;;;;;17.10;12.30;;;;;;;13.71;72.41;98169.35;231454;201;136540;-58
2024/03/11 12:19:00;;;;;;;17.90;11.80;;;;;;;13.58;72.59;98169.80;231441;201;137767;-58
2024/03/11 12:24:10;;;;;;;16.20;12.00;;;;;;;13.54;72.96;98168.05;231467;200;147778;-58
2024/03/11 12:29:19;;;;;;;17.10;12.50;;;;;;;13.60;73.18;98170.38;231658;206;137040;-57
2024/03/11 12:34:24;;;;;;;20.10;13.90;;;;;;;13.63;73.29;98169.57;231991;200;137147;-58
2024/03/11 12:39:33;;;;;;;18.60;12.80;;;;;;;13.67;72.99;98166.16;232012;205;149504;-58
2024/03/11 12:44:37;;;;;;;20.90;13.90;;;;;;;13.68;73.04;98161.94;231974;197;137495;-58
2024/03/11 12:49:41;;;;;;;18.40;14.00;;;;;;;13.70;73.08;98163.64;231883;198;137460;-58
2024/03/11 12:54:44;;;;;;;16.70;12.20;;;;;;;13.69;73.01;98163.46;232024;198;150225;-58
2024/03/11 13:00:00;;;;;;;20.00;13.50;;;;;;;13.75;73.10;98156.77;231552;198;137278;-57
2024/03/11 13:05:16;;;;;;;22.00;14.30;;;;;;;13.85;73.18;98155.33;231663;202;137061;-58
2024/03/11 13:10:20;;;;;;;21.10;15.10;;;;;;;13.96;73.14;98153.95;231941;202;149521;-57
2024/03/11 13:15:23;;;;;;;18.70;13.50;;;;;;;14.08;72.94;98152.48;231949;202;137977;-58
2024/03/11 13:20:37;;;;;;;17.30;12.10;;;;;;;14.22;72.68;98153.78;231900;206;137478;-59
2024/03/11 13:25:41;;;;;;;19.40;13.10;;;;;;;14.31;72.61;98149.52;231803;205;150059;-57
2024/03/11 13:30:45;;;;;;;17.20;12.50;;;;;;;14.34;72.36;98152.83;231954;202;136512;-57
2024/03/11 13:35:53;;;;;;;19.30;13.10;;;;;;;14.38;72.24;98152.30;232590;200;138034;-58
2024/03/11 13:40:59;;;;;;;19.30;14.40;;;;;;;14.47;71.88;98147.73;232534;203;149329;-57
2024/03/11 13:46:02;;;;;;;21.10;14.00;;;;;;;14.53;71.50;98150.41;232057;203;136531;-61
2024/03/11 13:51:06;;;;;;;20.60;14.40;;;;;;;14.53;71.49;98153.59;232483;203;137437;-60
2024/03/11 13:56:10;;;;;;;21.60;14.60;;;;;;;14.54;71.53;98149.62;232373;203;149755;-60
2024/03/11 14:01:14;;;;;;;18.40;13.60;;;;;;;14.50;71.23;98149.05;232599;203;136612;-61
2024/03/11 14:06:17;;;;;;;21.60;14.60;;;;;;;14.36;71.25;98146.71;232235;200;136556;-61
2024/03/11 14:11:21;;;;;;;17.90;13.60;;;;;;;14.23;71.45;98147.58;232361;200;150441;-61
2024/03/11 14:16:25;;;;;;;21.90;13.80;;;;;;;14.12;71.51;98145.19;232459;203;138258;-60
2024/03/11 14:21:28;;;;;;;21.30;14.70;;;;;;;14.02;71.91;98145.59;232607;203;138236;-60
2024/03/11 14:26:33;;;;;;;19.20;14.60;;;;;;;13.97;71.99;98142.42;232594;203;149580;-61
2024/03/11 14:31:38;;;;;;;24.50;14.70;;;;;;;13.89;72.02;98141.15;232559;200;137016;-60
2024/03/11 14:36:43;;;;;;;22.30;15.00;;;;;;;13.85;72.40;98137.29;232599;203;137260;-60
2024/03/11 14:41:47;;;;;;;22.90;15.50;;;;;;;13.76;72.69;98127.41;232009;203;150340;-60
2024/03/11 14:46:51;;;;;;;22.80;14.80;;;;;;;13.69;72.78;98132.30;232564;200;137817;-59
2024/03/11 14:52:03;;;;;;;18.90;13.70;;;;;;;13.61;73.07;98133.71;232387;203;137867;-61
2024/03/11 14:57:07;;;;;;;22.20;13.80;;;;;;;13.56;73.02;98131.67;232537;196;150211;-61
2024/03/11 15:02:11;;;;;;;23.90;14.60;;;;;;;13.58;73.14;98129.26;232600;203;138190;-61
2024/03/11 15:07:15;;;;;;;21.90;14.10;;;;;;;13.59;73.35;98127.72;232568;203;136526;-61
2024/03/11 15:12:18;;;;;;;20.20;13.70;;;;;;;13.60;73.44;98128.81;232338;203;149367;-61
2024/03/11 15:17:23;;;;;;;17.90;12.60;;;;;;;13.59;73.52;98130.02;232462;196;138116;-61
2024/03/11 15:22:29;;;;;;;15.70;11.10;;;;;;;13.55;73.70;98132.88;231843;200;137638;-60
2024/03/11 15:27:32;;;;;;;14.00;9.00;;;;;;;13.53;73.83;98135.41;232341;196;150219;-61
2024/03/11 15:32:36;;;;;;;13.80;7.40;;;;;;;13.58;73.90;98134.19;231281;204;137303;-61
2024/03/11 15:37:39;;;;;;;13.20;7.70;;;;;;;13.66;73.82;98139.73;231846;196;137196;-61
2024/03/11 15:42:43;;;;;;;11.20;7.70;;;;;;;13.77;73.54;98135.55;232489;200;149753;-61
2024/03/11 15:47:47;;;;;;;15.40;8.20;;;;;;;13.82;73.15;98134.91;232415;200;136577;-61
2024/03/11 15:52:52;;;;;;;19.30;12.90;;;;;;;13.81;72.84;98139.79;232577;200;136601;-61
2024/03/11 15:57:59;;;;;;;26.10;15.50;;;;;;;13.75;72.53;98139.81;232460;203;150255;-61
2024/03/11 16:03:07;;;;;;;25.90;17.50;;;;;;;13.60;72.37;98143.25;232537;203;137053;-61
2024/03/11 16:08:13;;;;;;;20.80;15.10;;;;;;;13.50;72.54;98142.75;232514;203;137417;-61
2024/03/11 16:13:21;;;;;;;23.50;15.40;;;;;;;13.43;72.42;98147.77;232387;196;148763;-61
2024/03/11 16:18:24;;;;;;;676.10;487.60;;;;;;;13.42;72.36;98143.61;232478;203;137918;-61
2024/03/11 16:23:32;;;;;;;26.10;20.10;;;;;;;13.39;72.29;98147.06;232531;203;137380;-61
2024/03/11 16:28:36;;;;;;;29.70;18.20;;;;;;;13.34;71.45;98152.86;232636;200;150174;-61
2024/03/11 16:33:40;;;;;;;23.20;17.10;;;;;;;13.25;71.11;98157.55;232517;200;136447;-61
2024/03/11 16:38:46;;;;;;;25.80;18.50;;;;;;;13.19;71.05;98162.52;232532;203;137163;-61
2024/03/11 16:43:55;;;;;;;25.80;18.00;;;;;;;13.05;70.88;98165.33;232338;203;149693;-62
2024/03/11 16:48:59;;;;;;;23.70;17.20;;;;;;;12.91;70.89;98169.74;232388;200;137505;-62
2024/03/11 16:54:04;;;;;;;23.30;17.60;;;;;;;12.80;71.08;98168.55;231971;204;138285;-61
2024/03/11 16:59:08;;;;;;;252.00;225.20;;;;;;;12.78;71.05;98174.43;232429;204;150431;-62
2024/03/11 17:04:14;;;;;;;30.20;21.30;;;;;;;12.79;71.17;98172.70;232318;203;136970;-62
2024/03/11 17:09:20;;;;;;;31.10;22.20;;;;;;;12.74;70.71;98176.52;232383;196;137637;-62
2024/03/11 17:14:26;;;;;;;30.30;23.20;;;;;;;12.66;70.91;98181.29;231031;200;150353;-62
2024/03/11 17:19:30;;;;;;;49.00;37.30;;;;;;;12.55;70.99;98185.39;232393;197;137929;-62
2024/03/11 17:24:37;;;;;;;25.20;19.50;;;;;;;12.47;70.84;98190.49;231887;203;137849;-60
2024/03/11 17:29:41;;;;;;;26.90;20.10;;;;;;;12.36;70.79;98189.02;232488;200;150109;-60
2024/03/11 17:34:46;;;;;;;30.00;18.70;;;;;;;12.24;70.83;98186.75;231756;203;138409;-60
2024/03/11 17:39:49;;;;;;;25.00;19.10;;;;;;;12.19;70.95;98183.27;232550;200;137417;-61
2024/03/11 17:44:53;;;;;;;29.20;21.20;;;;;;;12.16;70.85;98178.02;232502;203;149466;-60
2024/03/11 17:49:57;;;;;;;31.50;21.40;;;;;;;12.11;71.05;98178.39;232538;203;137774;-62
2024/03/11 17:55:00;;;;;;;27.40;21.50;;;;;;;12.00;71.17;98188.95;232542;202;137207;-62
2024/03/11 18:00:10;;;;;;;80.00;64.00;;;;;;;11.87;71.56;98194.25;232256;199;149536;-62
2024/03/11 18:05:17;;;;;;;35.00;25.80;;;;;;;11.82;72.21;98197.24;231770;203;137615;-62
2024/03/11 18:10:21;;;;;;;32.20;23.10;;;;;;;11.73;71.70;98198.17;232598;203;137965;-62
2024/03/11 18:15:25;;;;;;;33.50;24.00;;;;;;;11.56;71.86;98201.88;232550;200;149409;-61
2024/03/11 18:20:31;;;;;;;31.30;22.60;;;;;;;11.40;72.22;98206.46;232488;199;137529;-61
2024/03/11 18:25:34;;;;;;;32.80;21.20;;;;;;;11.33;72.57;98201.54;232517;199;138304;-62
2024/03/11 18:30:38;;;;;;;31.90;22.00;;;;;;;11.29;72.73;98205.40;232373;203;150704;-63
2024/03/11 18:35:42;;;;;;;33.10;22.20;;;;;;;11.31;72.74;98214.84;232453;203;136601;-64
2024/03/11 18:40:46;;;;;;;31.10;22.50;;;;;;;11.27;72.75;98225.77;232356;203;137146;-60
2024/03/11 18:45:51;;;;;;;32.00;21.90;;;;;;;11.23;72.87;98223.98;232504;199;149326;-60
2024/03/11 18:51:00;;;;;;;32.20;22.30;;;;;;;11.18;73.02;98219.61;232499;203;136668;-60
2024/03/11 18:56:12;;;;;;;52.70;38.50;;;;;;;11.16;73.41;98218.13;232520;200;136593;-61
2024/03/11 19:01:20;;;;;;;34.90;22.70;;;;;;;11.17;73.22;98211.67;232435;195;149492;-62
2024/03/11 19:06:25;;;;;;;28.20;20.50;;;;;;;11.09;73.12;98206.03;232402;203;137662;-57
2024/03/11 19:11:29;;;;;;;51.20;34.50;;;;;;;11.09;73.68;98205.73;232431;203;137668;-63
2024/03/11 19:16:32;;;;;;;31.70;21.80;;;;;;;11.13;73.23;98204.83;232466;200;149462;-63
2024/03/11 19:21:38;;;;;;;35.30;22.80;;;;;;;11.15;73.09;98202.41;232427;200;136538;-61
2024/03/11 19:26:42;;;;;;;30.20;22.00;;;;;;;11.14;73.03;98201.23;232364;203;136978;-61
2024/03/11 19:31:45;;;;;;;32.70;22.70;;;;;;;11.11;72.97;98201.80;232465;203;149771;-61
2024/03/11 19:37:10;;;;;;;32.00;22.20;;;;;;;11.05;72.96;98205.10;232461;203;136496;-62
2024/03/11 19:42:51;;;;;;;31.10;21.80;;;;;;;10.99;73.01;98207.56;232043;203;136892;-61
2024/03/11 19:48:25;;;;;;;28.10;20.70;;;;;;;10.93;73.01;98206.08;232394;200;149486;-63
2024/03/11 19:53:55;;;;;;;26.20;19.40;;;;;;;10.85;73.22;98212.52;232490;200;137320;-63
2024/03/11 19:59:36;;;;;;;30.50;20.70;;;;;;;10.82;73.14;98213.48;232386;203;139293;-63
2024/03/11 20:05:12;;;;;;;28.00;20.90;;;;;;;10.83;73.15;98221.38;232491;200;152146;-63
2024/03/11 20:10:33;;;;;;;28.90;20.40;;;;;;;10.80;73.02;98222.16;232447;200;137431;-62
2024/03/11 20:16:36;;;;;;;30.00;21.40;;;;;;;10.80;73.06;98223.37;232254;200;136938;-61
2024/03/11 20:21:58;;;;;;;29.70;22.00;;;;;;;10.76;72.96;98222.49;231568;200;152797;-63
2024/03/11 20:27:37;;;;;;;30.40;20.80;;;;;;;10.67;73.08;98219.04;232473;203;137592;-64
2024/03/11 20:32:51;;;;;;;26.50;20.70;;;;;;;10.63;73.20;98225.35;232535;197;136915;-62
2024/03/11 20:37:59;;;;;;;31.90;20.90;;;;;;;10.63;73.19;98229.42;232400;200;152217;-63
2024/03/11 20:43:03;;;;;;;29.00;20.40;;;;;;;10.70;73.24;98223.83;232471;199;138568;-62
2024/03/11 20:48:07;;;;;;;29.20;21.00;;;;;;;10.69;72.91;98225.85;232595;203;137770;-63
2024/03/11 20:53:13;;;;;;;28.10;20.80;;;;;;;10.68;72.88;98225.06;232508;203;152765;-62
2024/03/11 20:58:20;;;;;;;28.50;20.30;;;;;;;10.65;72.83;98220.56;232452;203;137004;-63
2024/03/11 21:03:24;;;;;;;30.70;21.00;;;;;;;10.59;72.88;98219.44;232288;203;138333;-64
2024/03/11 21:08:30;;;;;;;28.50;20.80;;;;;;;10.54;72.97;98220.70;232495;203;151590;-64
2024/03/11 21:13:38;;;;;;;30.70;21.30;;;;;;;10.51;73.08;98219.41;232378;201;137063;-64
2024/03/11 21:18:44;;;;;;;27.30;19.40;;;;;;;10.46;73.15;98218.84;232447;200;136829;-62
2024/03/11 21:24:06;;;;;;;27.50;18.50;;;;;;;10.46;73.27;98222.90;232375;203;151397;-63
2024/03/11 21:29:12;;;;;;;24.70;18.50;;;;;;;10.49;73.22;98229.80;232481;200;138087;-61
2024/03/11 21:34:15;;;;;;;26.40;18.90;;;;;;;10.53;73.25;98229.17;232438;200;138381;-63
2024/03/11 21:39:26;;;;;;;27.40;19.70;;;;;;;10.53;73.29;98225.24;232275;200;151139;-61
2024/03/11 21:44:32;;;;;;;28.30;20.30;;;;;;;10.52;73.17;98227.29;232401;203;138054;-62
2024/03/11 21:49:36;;;;;;;28.10;20.20;;;;;;;10.46;73.12;98224.69;232064;203;137445;-60
2024/03/11 21:54:43;;;;;;;24.90;20.20;;;;;;;10.40;73.25;98221.42;232452;200;152807;-61
2024/03/11 21:59:48;;;;;;;27.80;19.60;;;;;;;10.37;73.35;98213.29;232455;200;137459;-62
2024/03/11 22:04:55;;;;;;;25.60;19.10;;;;;;;10.29;73.45;98218.15;232513;200;137360;-62
2024/03/11 22:09:58;;;;;;;23.10;18.30;;;;;;;10.29;73.71;98218.91;232287;203;151183;-61
2024/03/11 22:15:03;;;;;;;28.10;20.00;;;;;;;10.28;73.76;98217.53;232457;203;137223;-62
2024/03/11 22:20:11;;;;;;;24.90;19.30;;;;;;;10.29;73.83;98217.80;232014;200;137442;-61
2024/03/11 22:25:16;;;;;;;28.40;19.70;;;;;;;10.28;73.98;98218.03;232458;203;151395;-62
2024/03/11 22:30:20;;;;;;;29.40;20.10;;;;;;;10.26;74.06;98213.95;232393;201;137510;-62
2024/03/11 22:35:23;;;;;;;28.10;20.00;;;;;;;10.21;74.05;98203.86;232444;200;137048;-65
2024/03/11 22:40:26;;;;;;;28.30;19.50;;;;;;;10.14;74.17;98200.11;232526;203;151398;-62
2024/03/11 22:45:30;;;;;;;28.30;19.40;;;;;;;10.06;74.31;98199.60;232391;200;137314;-62
2024/03/11 22:50:34;;;;;;;25.00;18.30;;;;;;;10.01;74.68;98197.87;232456;203;136919;-62
2024/03/11 22:55:37;;;;;;;26.10;18.60;;;;;;;10.00;74.77;98194.92;232378;200;152212;-63
2024/03/11 23:01:45;;;;;;;26.60;19.40;;;;;;;10.02;74.85;98191.98;232461;203;138132;-62
2024/03/11 23:06:17;;;;;;;27.70;19.20;;;;;;;10.04;74.86;98191.98;232337;197;137044;-63
2024/03/11 23:11:20;;;;;;;26.90;18.70;;;;;;;10.05;74.85;98194.73;232476;200;152019;-62
2024/03/11 23:16:25;;;;;;;26.50;19.60;;;;;;;10.04;74.88;98199.61;232352;200;137472;-62
2024/03/11 23:21:30;;;;;;;28.40;19.60;;;;;;;9.99;74.89;98198.38;232384;203;137814;-62
2024/03/11 23:26:33;;;;;;;28.60;19.90;;;;;;;9.95;75.03;98200.08;232452;200;151211;-62